Time;durP1;ratioP1;P1;durP2;ratioP2;P2;SDS_P1;SDS_P2;PMS_P1;PMS_P2;Temp;Humidity;BMP_temperature;BMP_pressure;BME280_temperature;BME280_humidity;BME280_pressure;Samples;Min_cycle;Max_cycle;Signal;HPM_P1;HPM_P2
2023/05/26 10:35:29;;;;;;;;;;;;;;;31.27;27.76;100643.69;5413794;32;36103;-96
2023/05/26 10:38:48;;;;;;;;;;;;;;;32.20;26.59;100642.06;5718834;27;36696;-96
2023/05/26 10:42:05;;;;;;;;;;;;;;;31.55;27.95;100634.84;5381616;32;35476;-95
2023/05/26 10:45:37;;;;;;;;;;;;;;;31.81;26.59;100639.75;5365884;32;34607;-96
2023/05/26 10:48:39;;;;;;;;;;;;;;;32.05;26.53;100631.25;5307912;32;44270;-76
2023/05/26 10:51:47;;;;;;;;;;;;;;;31.86;26.24;100633.75;5295732;32;34846;-76
2023/05/26 10:54:50;;;;;;;;;;;;;;;31.63;26.15;100633.91;5290979;32;35451;-76
2023/05/26 10:57:51;;;;;;;;;;;;;;;31.91;26.04;100634.88;5269718;32;35945;-77
2023/05/26 11:01:23;;;;;;;;;;;;;;;34.83;22.75;100618.00;5292402;32;35391;-76
2023/05/26 11:04:25;;;;;;;;;;;;;;;36.69;20.23;100606.91;5288750;32;35554;-77
2023/05/26 11:07:27;;;;;;;;;;;;;;;36.72;20.08;100611.13;5302881;32;35579;-77
2023/05/26 11:10:47;;;;;;;;;;;;;;;35.45;20.33;100613.03;5302084;32;37830;-76
2023/05/26 11:13:50;;;;;;;;;;;;;;;34.94;20.73;100606.47;5306780;32;35351;-75
2023/05/26 11:16:54;;;;;;;;;;;;;;;35.06;20.91;100605.81;5318974;32;34345;-76
2023/05/26 11:19:58;;;;;;;;;;;;;;;35.53;19.65;100608.16;5309186;32;35154;-77
2023/05/26 11:23:00;;;;;;;;;;;;;;;36.31;18.64;100607.88;5317214;32;35064;-76
2023/05/26 11:26:09;;;;;;;;;;;;;;;34.61;20.64;100601.06;5298820;32;35486;-77
2023/05/26 11:29:11;;;;;;;;;;;;;;;35.19;20.04;100600.31;5310228;32;44930;-76
2023/05/26 11:32:13;;;;;;;;;;;;;;;36.49;19.10;100587.94;5301771;32;36270;-76
2023/05/26 11:35:21;;;;;;;;;;;;;;;35.00;20.92;100591.97;5308005;32;34239;-76
2023/05/26 11:38:23;;;;;;;;;;;;;;;36.44;19.36;100593.25;5310539;32;35898;-77
2023/05/26 11:41:26;;;;;;;;;;;;;;;35.99;19.43;100587.09;5306216;32;35107;-76
2023/05/26 11:44:28;;;;;;;;;;;;;;;36.50;18.90;100580.56;5318390;32;35746;-76
2023/05/26 11:47:30;;;;;;;;;;;;;;;35.97;19.08;100578.28;5300911;32;34861;-76
2023/05/26 11:50:32;;;;;;;;;;;;;;;35.91;19.20;100577.25;5308735;32;34184;-76
2023/05/26 11:53:35;;;;;;;;;;;;;;;37.04;18.49;100574.34;5314458;32;44755;-76
2023/05/26 11:56:37;;;;;;;;;;;;;;;39.13;16.54;100559.56;5292357;32;34785;-76
2023/05/26 11:59:39;;;;;;;;;;;;;;;35.73;19.49;100566.19;5313741;32;35482;-76
2023/05/26 12:02:41;;;;;;;;;;;;;;;37.74;16.82;100556.53;5307247;32;34745;-76
2023/05/26 12:05:44;;;;;;;;;;;;;;;36.94;17.37;100554.03;5303918;32;35144;-76
2023/05/26 12:08:46;;;;;;;;;;;;;;;36.88;17.47;100542.06;5288051;32;34402;-77
2023/05/26 12:11:51;;;;;;;;;;;;;;;35.52;19.13;100546.34;5302671;32;34703;-76
2023/05/26 12:15:02;;;;;;;;;;;;;;;32.02;22.82;100539.22;5297911;32;35338;-76
2023/05/26 12:18:08;;;;;;;;;;;;;;;31.51;24.74;100541.19;5300795;32;43267;-75
2023/05/26 12:21:14;;;;;;;;;;;;;;;32.22;23.32;100524.94;5311933;32;34578;-76
2023/05/26 12:24:29;;;;;;;;;;;;;;;32.80;21.86;100534.56;5352114;32;35304;-76
2023/05/26 12:27:37;;;;;;;;;;;;;;;31.83;22.54;100539.03;5347806;32;35078;-76
2023/05/26 12:30:39;;;;;;;;;;;;;;;32.31;22.65;100518.31;5368589;32;44960;-76
2023/05/26 12:33:51;;;;;;;;;;;;;;;31.36;24.92;100521.38;5364183;32;35604;-76
2023/05/26 12:36:53;;;;;;;;;;;;;;;30.72;26.52;100520.16;5366056;32;34896;-76
2023/05/26 12:39:55;;;;;;;;;;;;;;;30.63;25.94;100512.28;5359302;32;35130;-76
2023/05/26 12:42:57;;;;;;;;;;;;;;;30.50;25.92;100512.91;5374579;32;35190;-76
2023/05/26 12:45:59;;;;;;;;;;;;;;;30.72;25.38;100509.31;5361828;32;36260;-76
2023/05/26 12:49:01;;;;;;;;;;;;;;;30.64;24.62;100503.94;5362361;32;34419;-76
2023/05/26 12:52:03;;;;;;;;;;;;;;;30.77;26.03;100510.59;5371163;32;34876;-75
2023/05/26 12:55:05;;;;;;;;;;;;;;;30.25;27.45;100509.62;5362519;32;45911;-76
2023/05/26 12:58:07;;;;;;;;;;;;;;;29.31;29.80;100500.84;5354914;32;35501;-76
2023/05/26 13:01:10;;;;;;;;;;;;;;;29.00;31.83;100497.31;5360751;32;34975;-76
2023/05/26 13:04:12;;;;;;;;;;;;;;;30.50;29.88;100501.22;5359633;32;34330;-77
2023/05/26 13:07:15;;;;;;;;;;;;;;;30.47;29.94;100494.31;5361058;32;34347;-76
2023/05/26 13:10:17;;;;;;;;;;;;;;;29.14;31.66;100501.97;5361617;32;35043;-76
2023/05/26 13:13:20;;;;;;;;;;;;;;;29.90;31.14;100489.44;5372190;32;35558;-75
2023/05/26 13:16:22;;;;;;;;;;;;;;;29.77;31.81;100476.50;5359841;32;35365;-75
2023/05/26 13:19:27;;;;;;;;;;;;;;;30.38;30.44;100485.41;5373173;32;35601;-76
2023/05/26 13:22:30;;;;;;;;;;;;;;;29.46;31.16;100483.84;5359586;32;34670;-76
2023/05/26 13:25:34;;;;;;;;;;;;;;;30.19;29.29;100486.81;5361518;32;46010;-76
2023/05/26 13:28:36;;;;;;;;;;;;;;;30.53;29.09;100481.84;5352052;32;36505;-76
2023/05/26 13:31:39;;;;;;;;;;;;;;;30.55;29.84;100480.66;5361093;32;35692;-75
2023/05/26 13:34:41;;;;;;;;;;;;;;;29.74;31.85;100474.16;5373926;32;35175;-77
2023/05/26 13:37:43;;;;;;;;;;;;;;;29.67;32.06;100479.47;5361308;32;34655;-77
2023/05/26 13:40:46;;;;;;;;;;;;;;;28.94;33.42;100479.09;5366458;32;35624;-76
2023/05/26 13:43:48;;;;;;;;;;;;;;;29.35;33.04;100479.66;5366913;32;34312;-75
2023/05/26 13:46:50;;;;;;;;;;;;;;;30.41;31.28;100476.09;5373432;32;34972;-75
2023/05/26 13:49:52;;;;;;;;;;;;;;;30.67;30.92;100473.78;5366615;32;37026;-74
2023/05/26 13:52:54;;;;;;;;;;;;;;;31.01;30.49;100475.00;5363516;32;36129;-76
2023/05/26 13:55:57;;;;;;;;;;;;;;;29.77;32.59;100476.50;5358300;32;35364;-76
2023/05/26 13:59:14;;;;;;;;;;;;;;;30.08;32.23;100465.56;5356660;32;34905;-76
2023/05/26 14:02:16;;;;;;;;;;;;;;;30.37;31.73;100472.91;5369238;32;35252;-75
2023/05/26 14:05:19;;;;;;;;;;;;;;;30.32;31.53;100463.63;5353011;32;35085;-74
2023/05/26 14:08:23;;;;;;;;;;;;;;;29.78;32.80;100458.41;5366390;32;34874;-77
2023/05/26 14:11:25;;;;;;;;;;;;;;;29.76;33.10;100465.88;5368544;32;35184;-76
2023/05/26 14:14:27;;;;;;;;;;;;;;;28.77;34.73;100465.59;5346903;32;35352;-75
2023/05/26 14:17:30;;;;;;;;;;;;;;;30.32;32.26;100460.91;5372988;32;35255;-76
2023/05/26 14:20:32;;;;;;;;;;;;;;;29.95;32.39;100459.94;5359715;32;34626;-76
2023/05/26 14:23:54;;;;;;;;;;;;;;;29.19;33.67;100466.25;5372945;32;35082;-76
2023/05/26 14:26:56;;;;;;;;;;;;;;;29.35;34.30;100466.97;5345895;32;34757;-76
2023/05/26 14:29:58;;;;;;;;;;;;;;;29.33;34.20;100460.91;5359652;32;34904;-75
2023/05/26 14:33:03;;;;;;;;;;;;;;;29.65;33.85;100456.31;5373135;32;35531;-76
2023/05/26 14:36:06;;;;;;;;;;;;;;;29.17;34.66;100465.56;5356741;32;45631;-76
2023/05/26 14:39:09;;;;;;;;;;;;;;;28.54;35.59;100449.31;5372778;32;35100;-75
2023/05/26 14:42:11;;;;;;;;;;;;;;;28.85;35.00;100451.19;5353475;32;35202;-76
2023/05/26 14:45:13;;;;;;;;;;;;;;;29.21;34.47;100454.22;5367564;32;35375;-76
2023/05/26 14:48:15;;;;;;;;;;;;;;;28.74;34.90;100444.31;5362732;32;35271;-76
2023/05/26 14:51:17;;;;;;;;;;;;;;;28.77;35.29;100451.22;5359711;32;35587;-76
2023/05/26 14:54:20;;;;;;;;;;;;;;;28.71;35.57;100451.94;5374281;32;35340;-76
2023/05/26 14:57:21;;;;;;;;;;;;;;;28.42;35.99;100455.25;5341904;32;34609;-76
2023/05/26 15:00:24;;;;;;;;;;;;;;;28.58;35.90;100433.56;5374036;32;37037;-77
2023/05/26 15:03:26;;;;;;;;;;;;;;;29.55;33.83;100428.62;5361059;32;35476;-76
2023/05/26 15:06:30;;;;;;;;;;;;;;;29.13;34.21;100438.03;5370963;32;35149;-76
2023/05/26 15:09:32;;;;;;;;;;;;;;;28.09;36.05;100438.28;5368044;32;34918;-77
2023/05/26 15:12:36;;;;;;;;;;;;;;;28.80;34.95;100443.63;5358587;32;44865;-76
2023/05/26 15:15:38;;;;;;;;;;;;;;;28.88;35.04;100427.34;5372756;32;35018;-75
2023/05/26 15:18:40;;;;;;;;;;;;;;;28.19;35.71;100441.59;5358816;32;37281;-76
2023/05/26 15:21:42;;;;;;;;;;;;;;;28.45;35.29;100435.97;5372112;32;34999;-76
2023/05/26 15:24:45;;;;;;;;;;;;;;;27.77;35.47;100435.44;5360882;32;34344;-76
2023/05/26 15:27:47;;;;;;;;;;;;;;;28.60;34.47;100439.66;5338084;32;34691;-75
2023/05/26 15:30:49;;;;;;;;;;;;;;;29.08;33.94;100435.88;5340932;32;35619;-75
2023/05/26 15:33:51;;;;;;;;;;;;;;;28.33;34.62;100432.81;5362010;32;36423;-75
2023/05/26 15:36:53;;;;;;;;;;;;;;;28.51;34.71;100446.94;5370356;32;34528;-75
2023/05/26 15:39:55;;;;;;;;;;;;;;;29.00;33.54;100435.09;5355191;32;34459;-76
2023/05/26 15:42:58;;;;;;;;;;;;;;;29.24;33.33;100437.63;5350834;32;34635;-76
2023/05/26 15:46:00;;;;;;;;;;;;;;;28.50;34.90;100439.84;5359225;32;34562;-76
2023/05/26 15:49:02;;;;;;;;;;;;;;;28.64;34.26;100440.13;5366869;32;35708;-76
2023/05/26 15:52:04;;;;;;;;;;;;;;;28.55;33.99;100437.47;5354078;32;44672;-75
2023/05/26 15:55:08;;;;;;;;;;;;;;;28.38;34.60;100430.44;5356604;32;35339;-75
2023/05/26 15:58:10;;;;;;;;;;;;;;;27.80;35.14;100436.94;5352967;32;35775;-75
2023/05/26 16:01:12;;;;;;;;;;;;;;;27.84;34.59;100442.84;5346301;32;34352;-75
2023/05/26 16:04:14;;;;;;;;;;;;;;;27.29;35.35;100443.47;5372867;32;35199;-75
2023/05/26 16:07:17;;;;;;;;;;;;;;;27.03;35.85;100443.56;5360450;32;34250;-74
2023/05/26 16:10:19;;;;;;;;;;;;;;;27.15;35.29;100447.69;5363853;32;34032;-75
2023/05/26 16:13:21;;;;;;;;;;;;;;;27.29;35.09;100455.13;5367841;32;34481;-75
2023/05/26 16:16:23;;;;;;;;;;;;;;;27.24;35.11;100450.25;5360352;32;34485;-75
2023/05/26 16:19:25;;;;;;;;;;;;;;;26.62;36.43;100465.84;5369260;32;34762;-75
2023/05/26 16:22:27;;;;;;;;;;;;;;;27.32;35.13;100454.78;5352256;32;34488;-76
2023/05/26 16:25:29;;;;;;;;;;;;;;;26.93;35.93;100455.34;5364195;32;34784;-75
2023/05/26 16:28:31;;;;;;;;;;;;;;;26.89;36.11;100448.59;5347490;32;35951;-75
2023/05/26 16:31:33;;;;;;;;;;;;;;;27.12;35.86;100456.12;5363526;32;35192;-75
2023/05/26 16:34:35;;;;;;;;;;;;;;;27.07;35.87;100450.37;5368169;32;45122;-75
2023/05/26 16:37:37;;;;;;;;;;;;;;;27.38;35.46;100458.69;5357002;32;34985;-76
2023/05/26 16:40:39;;;;;;;;;;;;;;;27.47;35.34;100447.72;5369954;32;34405;-76
2023/05/26 16:43:42;;;;;;;;;;;;;;;27.21;35.79;100461.34;5361221;32;34749;-76
2023/05/26 16:46:47;;;;;;;;;;;;;;;27.11;35.93;100462.50;5372963;32;34220;-75
2023/05/26 16:49:50;;;;;;;;;;;;;;;26.45;38.88;100483.78;5360555;32;34641;-75
2023/05/26 16:52:52;;;;;;;;;;;;;;;26.77;39.08;100495.72;5361672;32;35132;-76
2023/05/26 16:55:54;;;;;;;;;;;;;;;26.35;40.03;100488.44;5359912;32;35015;-75
2023/05/26 16:58:56;;;;;;;;;;;;;;;26.13;40.55;100494.31;5347046;32;37079;-76
2023/05/26 17:01:58;;;;;;;;;;;;;;;26.34;40.48;100492.13;5372880;32;34971;-76
2023/05/26 17:05:03;;;;;;;;;;;;;;;26.23;41.35;100488.84;5352587;32;34361;-76
2023/05/26 17:08:05;;;;;;;;;;;;;;;26.04;42.59;100503.38;5367974;32;45089;-75
2023/05/26 17:11:07;;;;;;;;;;;;;;;26.37;41.97;100501.72;5358420;32;35053;-76
2023/05/26 17:14:09;;;;;;;;;;;;;;;26.35;41.44;100503.75;5357609;32;36356;-76
2023/05/26 17:17:13;;;;;;;;;;;;;;;26.31;41.96;100503.22;5371470;32;34820;-75
2023/05/26 17:20:15;;;;;;;;;;;;;;;26.65;40.30;100503.25;5356895;32;34969;-75
2023/05/26 17:23:17;;;;;;;;;;;;;;;25.73;41.38;100505.63;5371485;32;34668;-76
2023/05/26 17:26:19;;;;;;;;;;;;;;;26.09;40.25;100511.81;5337611;32;35116;-75
2023/05/26 17:29:21;;;;;;;;;;;;;;;26.77;38.85;100508.37;5347919;32;35185;-75
2023/05/26 17:32:23;;;;;;;;;;;;;;;26.24;40.15;100520.16;5360184;32;35590;-75
2023/05/26 17:35:29;;;;;;;;;;;;;;;26.46;39.96;100520.50;5357766;32;35791;-75
2023/05/26 17:38:33;;;;;;;;;;;;;;;26.28;40.83;100526.94;5369900;32;35423;-75
2023/05/26 17:41:35;;;;;;;;;;;;;;;26.06;41.98;100526.44;5356550;32;45291;-76
2023/05/26 17:44:37;;;;;;;;;;;;;;;26.05;42.50;100524.75;5371980;32;34875;-76
2023/05/26 17:47:39;;;;;;;;;;;;;;;26.35;42.53;100536.94;5360027;32;34387;-75
2023/05/26 17:50:41;;;;;;;;;;;;;;;26.23;42.70;100538.19;5368813;32;34989;-77
2023/05/26 17:53:43;;;;;;;;;;;;;;;25.99;44.07;100533.44;5361857;32;34267;-75
2023/05/26 17:56:46;;;;;;;;;;;;;;;26.61;42.61;100544.19;5343147;32;34952;-75
2023/05/26 17:59:48;;;;;;;;;;;;;;;26.76;41.51;100547.12;5366499;32;33997;-76
2023/05/26 18:02:50;;;;;;;;;;;;;;;26.14;42.05;100544.50;5359264;32;35073;-75
2023/05/26 18:05:52;;;;;;;;;;;;;;;25.81;42.14;100548.75;5371275;32;34327;-75
2023/05/26 18:08:54;;;;;;;;;;;;;;;25.85;41.84;100551.00;5358793;32;35008;-75
2023/05/26 18:11:56;;;;;;;;;;;;;;;26.22;40.84;100549.13;5368992;32;34977;-76
2023/05/26 18:14:58;;;;;;;;;;;;;;;26.33;40.48;100555.06;5361642;32;35123;-76
2023/05/26 18:18:01;;;;;;;;;;;;;;;25.45;42.29;100550.59;5359138;32;34813;-74
2023/05/26 18:21:03;;;;;;;;;;;;;;;26.02;41.04;100549.31;5356456;32;34780;-77
2023/05/26 18:24:05;;;;;;;;;;;;;;;24.63;44.32;100562.13;5359158;32;44980;-76
2023/05/26 18:27:07;;;;;;;;;;;;;;;25.38;42.91;100561.09;5351563;32;34242;-75
2023/05/26 18:30:10;;;;;;;;;;;;;;;24.74;44.36;100564.62;5356913;32;35555;-76
2023/05/26 18:33:13;;;;;;;;;;;;;;;25.18;43.58;100573.78;5368957;32;35651;-77
2023/05/26 18:36:15;;;;;;;;;;;;;;;25.50;42.94;100567.09;5342261;32;35607;-76
2023/05/26 18:39:18;;;;;;;;;;;;;;;24.99;44.06;100573.84;5354290;32;35540;-76
2023/05/26 18:42:20;;;;;;;;;;;;;;;25.20;43.58;100574.50;5373051;32;34764;-76
2023/05/26 18:45:22;;;;;;;;;;;;;;;25.89;42.03;100578.44;5358845;32;35284;-77
2023/05/26 18:48:24;;;;;;;;;;;;;;;24.90;44.13;100586.34;5371604;32;36100;-76
2023/05/26 18:51:26;;;;;;;;;;;;;;;24.83;44.51;100591.47;5357095;32;34445;-75
2023/05/26 18:54:29;;;;;;;;;;;;;;;24.69;45.00;100596.47;5366003;32;35716;-76
2023/05/26 18:57:31;;;;;;;;;;;;;;;24.36;45.69;100587.94;5347094;32;35450;-76
2023/05/26 19:00:33;;;;;;;;;;;;;;;24.52;45.56;100603.44;5358417;32;35629;-76
2023/05/26 19:03:36;;;;;;;;;;;;;;;24.29;46.12;100609.09;5371573;32;44921;-77
2023/05/26 19:06:38;;;;;;;;;;;;;;;24.55;45.87;100604.00;5357445;32;34973;-75
2023/05/26 19:09:40;;;;;;;;;;;;;;;24.36;46.22;100609.41;5370841;32;34248;-77
2023/05/26 19:12:42;;;;;;;;;;;;;;;25.31;44.05;100603.91;5359401;32;35799;-77
2023/05/26 19:15:44;;;;;;;;;;;;;;;24.50;45.61;100603.59;5364479;32;34975;-76
2023/05/26 19:18:47;;;;;;;;;;;;;;;24.73;45.28;100609.50;5365318;32;35401;-77
2023/05/26 19:21:49;;;;;;;;;;;;;;;24.22;46.50;100616.03;5356599;32;34740;-76
2023/05/26 19:24:51;;;;;;;;;;;;;;;24.48;45.84;100610.13;5369399;32;34969;-75
2023/05/26 19:27:53;;;;;;;;;;;;;;;24.03;47.26;100622.25;5336686;32;35610;-75
2023/05/26 19:30:55;;;;;;;;;;;;;;;23.96;47.05;100614.91;5372242;32;35467;-76
2023/05/26 19:33:57;;;;;;;;;;;;;;;24.52;45.75;100616.87;5361287;32;35262;-75
2023/05/26 19:37:02;;;;;;;;;;;;;;;24.03;47.24;100622.25;5359891;32;34965;-76
2023/05/26 19:40:05;;;;;;;;;;;;;;;24.65;45.96;100619.25;5365480;32;38344;-74
2023/05/26 19:43:10;;;;;;;;;;;;;;;24.33;46.72;100617.72;5349539;32;45261;-76
2023/05/26 19:46:12;;;;;;;;;;;;;;;24.46;46.21;100617.44;5354451;32;34981;-76
2023/05/26 19:49:14;;;;;;;;;;;;;;;23.99;47.47;100628.03;5359203;32;35593;-75
2023/05/26 19:52:17;;;;;;;;;;;;;;;23.81;47.61;100640.44;5372510;32;35548;-75
2023/05/26 19:55:19;;;;;;;;;;;;;;;24.28;46.51;100638.78;5352265;32;34989;-76
2023/05/26 19:58:21;;;;;;;;;;;;;;;24.46;46.05;100631.72;5343982;32;35512;-77
2023/05/26 20:01:23;;;;;;;;;;;;;;;24.80;44.74;100632.09;5372663;32;34980;-79
2023/05/26 20:04:26;;;;;;;;;;;;;;;24.20;45.84;100642.16;5358629;32;35113;-77
2023/05/26 20:07:28;;;;;;;;;;;;;;;24.07;46.27;100640.75;5363223;32;36461;-77
2023/05/26 20:10:31;;;;;;;;;;;;;;;23.98;46.66;100645.16;5357154;32;34830;-76
2023/05/26 20:13:33;;;;;;;;;;;;;;;24.14;46.10;100644.56;5370145;32;35313;-76
2023/05/26 20:16:35;;;;;;;;;;;;;;;24.00;46.38;100648.53;5359772;32;44749;-75
2023/05/26 20:19:37;;;;;;;;;;;;;;;23.93;46.74;100639.34;5354746;32;35249;-75
2023/05/26 20:22:52;;;;;;;;;;;;;;;23.45;47.78;100651.66;5359937;32;34605;-76
2023/05/26 20:25:54;;;;;;;;;;;;;;;23.21;48.63;100643.94;5348047;32;35064;-76
2023/05/26 20:28:56;;;;;;;;;;;;;;;22.82;49.86;100652.75;5362012;32;35073;-75
2023/05/26 20:31:58;;;;;;;;;;;;;;;23.59;47.97;100652.25;5358426;32;34036;-75
2023/05/26 20:35:00;;;;;;;;;;;;;;;23.32;48.49;100652.88;5367697;32;36149;-76
2023/05/26 20:38:02;;;;;;;;;;;;;;;22.73;49.77;100656.19;5351113;32;35629;-76
2023/05/26 20:41:05;;;;;;;;;;;;;;;22.96;48.93;100649.75;5352940;32;43101;-76
2023/05/26 20:44:07;;;;;;;;;;;;;;;23.50;47.63;100653.91;5354134;32;35048;-75
2023/05/26 20:47:10;;;;;;;;;;;;;;;22.68;49.82;100656.59;5359071;32;34985;-74
2023/05/26 20:50:12;;;;;;;;;;;;;;;22.07;51.28;100662.56;5369420;32;35032;-74
2023/05/26 20:53:15;;;;;;;;;;;;;;;22.50;49.67;100652.81;5346880;32;34444;-74
2023/05/26 20:56:17;;;;;;;;;;;;;;;22.34;49.77;100659.44;5353595;32;34549;-75
2023/05/26 20:59:19;;;;;;;;;;;;;;;22.58;49.12;100663.72;5356944;32;34825;-75
2023/05/26 21:02:21;;;;;;;;;;;;;;;23.31;47.19;100664.56;5359117;32;35229;-76
2023/05/26 21:05:23;;;;;;;;;;;;;;;22.46;49.33;100670.97;5370833;32;33059;-75
2023/05/26 21:08:25;;;;;;;;;;;;;;;22.26;50.01;100672.62;5358082;32;35600;-75
2023/05/26 21:11:28;;;;;;;;;;;;;;;22.30;50.35;100676.75;5370295;32;34517;-75
2023/05/26 21:14:30;;;;;;;;;;;;;;;22.28;50.42;100677.84;5356365;32;35452;-76
2023/05/26 21:17:32;;;;;;;;;;;;;;;22.68;49.27;100673.53;5364793;32;34917;-76
2023/05/26 21:20:35;;;;;;;;;;;;;;;22.26;50.20;100675.31;5362199;32;43759;-77
2023/05/26 21:23:38;;;;;;;;;;;;;;;22.16;50.61;100672.56;5343081;32;35676;-75
2023/05/26 21:26:40;;;;;;;;;;;;;;;22.55;49.16;100674.72;5355133;32;35482;-76
2023/05/26 21:29:42;;;;;;;;;;;;;;;22.05;50.58;100683.28;5352189;32;34815;-78
2023/05/26 21:32:46;;;;;;;;;;;;;;;22.07;50.58;100677.78;5355756;32;34722;-75
2023/05/26 21:35:48;;;;;;;;;;;;;;;22.09;50.65;100678.53;5357411;32;35255;-75
2023/05/26 21:38:50;;;;;;;;;;;;;;;22.25;49.63;100675.44;5387362;27;35977;-85
2023/05/26 21:41:53;;;;;;;;;;;;;;;22.17;50.04;100674.25;5377818;32;37335;-85
2023/05/26 21:44:55;;;;;;;;;;;;;;;22.23;49.42;100682.75;5380975;32;35106;-86
2023/05/26 21:47:57;;;;;;;;;;;;;;;22.70;48.30;100681.44;5394432;32;34729;-86
2023/05/26 21:50:59;;;;;;;;;;;;;;;22.45;48.49;100688.00;5366532;32;33822;-85
2023/05/26 21:54:03;;;;;;;;;;;;;;;22.42;48.49;100685.59;5392529;32;35029;-84
2023/05/26 21:57:05;;;;;;;;;;;;;;;22.37;48.53;100691.34;5350610;32;44792;-85
2023/05/26 22:00:12;;;;;;;;;;;;;;;22.42;48.57;100691.81;5383567;32;34180;-85
2023/05/26 22:03:15;;;;;;;;;;;;;;;22.66;47.90;100691.53;5394140;32;34921;-84
2023/05/26 22:06:17;;;;;;;;;;;;;;;22.23;48.85;100688.13;5378830;32;35023;-85
2023/05/26 22:09:19;;;;;;;;;;;;;;;21.72;50.43;100689.56;5393025;32;35211;-86
2023/05/26 22:12:21;;;;;;;;;;;;;;;22.66;47.88;100686.19;5382004;32;33314;-86
2023/05/26 22:15:23;;;;;;;;;;;;;;;21.95;49.42;100693.00;5373152;32;35518;-84
2023/05/26 22:18:25;;;;;;;;;;;;;;;22.70;47.63;100693.00;5363500;32;33957;-85
2023/05/26 22:21:27;;;;;;;;;;;;;;;22.17;48.89;100695.69;5381566;32;34872;-85
2023/05/26 22:24:29;;;;;;;;;;;;;;;22.41;48.42;100691.91;5375334;32;36199;-86
2023/05/26 22:27:32;;;;;;;;;;;;;;;22.59;47.74;100686.84;5362578;32;35485;-87
2023/05/26 22:30:34;;;;;;;;;;;;;;;21.84;49.58;100696.59;5392665;32;34296;-87
2023/05/26 22:33:36;;;;;;;;;;;;;;;22.89;46.98;100688.78;5366428;32;44516;-85
2023/05/26 22:36:38;;;;;;;;;;;;;;;22.41;48.23;100689.22;5390527;32;34187;-85
2023/05/26 22:39:39;;;;;;;;;;;;;;;22.68;47.57;100686.06;5381434;32;36875;-85
2023/05/26 22:42:41;;;;;;;;;;;;;;;22.88;47.03;100684.41;5358981;32;34319;-86
2023/05/26 22:45:43;;;;;;;;;;;;;;;22.77;47.34;100687.97;5389624;32;36107;-87
2023/05/26 22:48:45;;;;;;;;;;;;;;;22.11;49.13;100688.16;5366760;32;35760;-85
2023/05/26 22:51:48;;;;;;;;;;;;;;;22.95;47.03;100682.88;5390708;32;34804;-85
2023/05/26 22:54:50;;;;;;;;;;;;;;;22.24;48.61;100695.16;5362771;32;35598;-86
2023/05/26 22:57:54;;;;;;;;;;;;;;;22.32;48.74;100695.38;5360976;32;35660;-86
2023/05/26 23:00:56;;;;;;;;;;;;;;;22.08;49.17;100687.50;5381088;32;35537;-85
2023/05/26 23:04:01;;;;;;;;;;;;;;;22.04;49.42;100702.13;5379079;32;35654;-85
2023/05/26 23:07:03;;;;;;;;;;;;;;;21.68;50.32;100693.44;5372591;32;33389;-87
2023/05/26 23:13:39;;;;;;;;;;;;;;;21.89;50.17;100696.19;5387165;32;44727;-86
2023/05/26 23:16:41;;;;;;;;;;;;;;;22.11;49.58;100688.16;5371297;32;44459;-87
2023/05/26 23:19:43;;;;;;;;;;;;;;;22.13;49.43;100690.69;5383830;32;34627;-86
2023/05/26 23:22:45;;;;;;;;;;;;;;;21.93;49.96;100700.31;5394488;32;35784;-85
2023/05/26 23:25:47;;;;;;;;;;;;;;;22.54;48.50;100697.97;5369701;32;34817;-85
2023/05/26 23:28:50;;;;;;;;;;;;;;;21.85;50.51;100700.12;5359918;32;34987;-85
2023/05/26 23:31:52;;;;;;;;;;;;;;;21.98;50.01;100705.31;5383102;32;34486;-86
2023/05/26 23:34:54;;;;;;;;;;;;;;;21.31;52.07;100695.53;5389554;32;34946;-85
2023/05/26 23:37:58;;;;;;;;;;;;;;;21.28;52.45;100706.44;5381489;32;34424;-85
2023/05/26 23:41:01;;;;;;;;;;;;;;;21.46;51.82;100702.34;5366404;32;34942;-86
2023/05/26 23:44:03;;;;;;;;;;;;;;;21.81;50.73;100694.16;5394880;32;33709;-86
2023/05/26 23:47:06;;;;;;;;;;;;;;;21.00;53.21;100695.25;5360800;32;44748;-86
2023/05/26 23:50:08;;;;;;;;;;;;;;;21.51;51.71;100697.50;5395059;32;35909;-85
2023/05/26 23:53:12;;;;;;;;;;;;;;;21.66;51.36;100694.56;5381475;32;36341;-85
2023/05/26 23:56:17;;;;;;;;;;;;;;;21.70;50.90;100695.97;5380830;32;35788;-86
2023/05/26 23:59:41;;;;;;;;;;;;;;;21.54;51.23;100691.88;5303497;32;36972;-86
